createdAt,value
2019-05-14T00:00:42.190Z,27.48
2019-05-14T00:03:11.547Z,26.87
2019-05-14T00:05:42.462Z,23.67
2019-05-14T00:08:11.986Z,23.50
2019-05-14T00:10:41.355Z,24.67
2019-05-14T00:13:12.047Z,25.88
2019-05-14T00:15:41.604Z,24.12
2019-05-14T00:18:11.768Z,22.48
2019-05-14T00:20:41.934Z,22.22
2019-05-14T00:23:11.904Z,22.17
2019-05-14T00:25:41.974Z,21.90
2019-05-14T00:28:11.825Z,24.05
2019-05-14T00:30:42.290Z,22.30
2019-05-14T00:33:11.777Z,23.80
2019-05-14T00:35:41.425Z,21.15
2019-05-14T00:38:11.878Z,20.68
2019-05-14T00:40:41.974Z,21.90
2019-05-14T00:43:11.511Z,22.15
2019-05-14T00:45:41.798Z,24.35
2019-05-14T00:48:12.905Z,22.35
2019-05-14T00:50:42.570Z,21.60
2019-05-14T00:53:12.028Z,22.22
2019-05-14T00:55:42.113Z,24.10
2019-05-14T00:58:11.542Z,21.85
2019-05-14T01:00:41.809Z,21.87
2019-05-14T01:03:11.348Z,21.15
2019-05-14T01:05:41.402Z,21.00
2019-05-14T01:08:12.037Z,22.35
2019-05-14T01:10:41.875Z,23.00
2019-05-14T01:13:11.347Z,22.50
2019-05-14T01:15:41.466Z,23.75
2019-05-14T01:18:11.445Z,20.65
2019-05-14T01:20:41.292Z,20.43
2019-05-14T01:23:11.503Z,20.43
2019-05-14T01:25:42.235Z,21.10
2019-05-14T01:28:11.722Z,22.93
2019-05-14T01:30:41.426Z,21.85
2019-05-14T01:33:11.838Z,21.57
2019-05-14T01:35:42.040Z,21.82
2019-05-14T01:38:11.652Z,21.27
2019-05-14T01:40:41.997Z,21.70
2019-05-14T01:43:11.686Z,20.40
2019-05-14T01:45:41.698Z,21.40
2019-05-14T01:48:11.778Z,23.70
2019-05-14T01:50:41.478Z,23.32
2019-05-14T01:53:11.502Z,24.18
2019-05-14T01:55:41.593Z,24.35
2019-05-14T01:58:11.616Z,25.92
2019-05-14T02:00:41.617Z,26.57
2019-05-14T02:03:12.139Z,28.85
2019-05-14T02:05:41.770Z,29.10
2019-05-14T02:08:12.161Z,30.02
2019-05-14T02:10:42.038Z,26.10
2019-05-14T02:13:12.341Z,30.88
2019-05-14T02:15:43.056Z,28.00
2019-05-14T02:18:12.599Z,27.22
2019-05-14T02:20:42.372Z,28.05
2019-05-14T02:23:12.061Z,27.98
2019-05-14T02:25:41.444Z,29.37
2019-05-14T02:28:11.560Z,32.90
2019-05-14T02:30:52.678Z,29.90
2019-05-14T02:33:12.251Z,29.30
2019-05-14T02:35:41.617Z,28.42
2019-05-14T02:38:10.974Z,32.08
2019-05-14T02:40:40.679Z,34.53
2019-05-14T02:43:10.084Z,34.55
2019-05-14T02:45:58.628Z,33.00
2019-05-14T02:48:10.942Z,31.62
2019-05-14T02:50:40.319Z,37.17
2019-05-14T02:53:10.440Z,40.43
2019-05-14T02:55:40.101Z,36.93
2019-05-14T02:58:10.127Z,38.35
2019-05-14T03:00:40.703Z,37.40
2019-05-14T03:03:10.444Z,40.03
2019-05-14T03:05:40.252Z,35.73
2019-05-14T03:08:10.114Z,38.67
2019-05-14T03:10:40.238Z,38.45
2019-05-14T03:13:09.879Z,42.33
2019-05-14T03:15:39.369Z,39.67
2019-05-14T03:18:09.365Z,42.38
2019-05-14T03:20:39.301Z,41.10
2019-05-14T03:23:15.662Z,40.28
2019-05-14T03:25:40.199Z,41.58
2019-05-14T03:28:09.616Z,40.85
2019-05-14T03:30:42.279Z,43.08
2019-05-14T03:33:13.345Z,46.02
2019-05-14T03:35:49.491Z,41.58
2019-05-14T03:38:12.303Z,46.33
2019-05-14T03:40:41.693Z,50.88
2019-05-14T03:43:11.141Z,45.92
2019-05-14T03:45:40.624Z,40.70
2019-05-14T03:48:10.581Z,44.90
2019-05-14T03:50:40.217Z,42.20
2019-05-14T03:53:10.241Z,45.63
2019-05-14T03:55:40.545Z,44.30
2019-05-14T03:58:10.098Z,43.52
2019-05-14T04:00:51.605Z,41.30
2019-05-14T04:03:23.557Z,47.58
2019-05-14T04:05:54.003Z,41.98
2019-05-14T04:08:29.367Z,44.55
2019-05-14T04:11:00.635Z,42.55
2019-05-14T04:13:33.700Z,43.80
2019-05-14T04:16:03.814Z,47.73
2019-05-14T04:18:35.509Z,40.78
2019-05-14T04:21:05.843Z,39.00
2019-05-14T04:23:51.331Z,39.95
2019-05-14T04:26:21.899Z,39.23
2019-05-14T04:28:52.068Z,40.03
2019-05-14T04:31:21.534Z,37.95
2019-05-14T04:33:51.679Z,34.23
2019-05-14T04:36:21.037Z,37.98
2019-05-14T04:38:54.865Z,34.92
2019-05-14T04:41:21.487Z,33.20
2019-05-14T04:43:50.858Z,34.65
2019-05-14T04:46:20.495Z,37.45
2019-05-14T04:48:51.171Z,36.23
2019-05-14T04:51:20.971Z,33.18
2019-05-14T04:53:50.667Z,32.60
2019-05-14T04:56:20.256Z,28.38
2019-05-14T04:58:50.455Z,32.55
2019-05-14T05:01:21.001Z,29.85
2019-05-14T05:03:50.985Z,31.52
2019-05-14T05:06:20.546Z,33.05
2019-05-14T05:08:50.315Z,35.08
2019-05-14T05:11:21.423Z,35.65
2019-05-14T05:13:51.196Z,33.02
2019-05-14T05:16:20.668Z,37.58
2019-05-14T05:18:50.078Z,35.30
2019-05-14T05:21:19.583Z,32.78
2019-05-14T05:23:49.467Z,36.05
2019-05-14T05:26:19.049Z,39.03
2019-05-14T05:29:03.004Z,34.80
2019-05-14T05:31:19.568Z,39.08
2019-05-14T05:33:49.260Z,35.28
2019-05-14T05:36:18.812Z,34.10
2019-05-14T05:38:49.157Z,32.33
2019-05-14T05:41:19.328Z,37.17
2019-05-14T05:43:48.856Z,31.00
2019-05-14T05:46:19.202Z,32.73
2019-05-14T05:48:48.779Z,32.30
2019-05-14T05:51:18.683Z,30.80
2019-05-14T05:53:48.694Z,29.02
2019-05-14T05:56:18.822Z,32.42
2019-05-14T05:58:49.088Z,34.85
2019-05-14T06:01:19.623Z,37.25
2019-05-14T06:03:49.589Z,34.80
2019-05-14T06:06:19.434Z,33.48
2019-05-14T06:08:49.600Z,37.40
2019-05-14T06:11:19.552Z,32.70
2019-05-14T06:13:49.214Z,35.48
2019-05-14T06:16:18.899Z,38.28
2019-05-14T06:18:48.790Z,34.92
2019-05-14T06:21:19.334Z,35.03
2019-05-14T06:23:49.680Z,33.65
2019-05-14T06:26:19.622Z,48.02
2019-05-14T06:28:49.827Z,33.98
2019-05-14T06:31:19.664Z,42.67
2019-05-14T06:33:49.298Z,47.33
2019-05-14T06:36:19.662Z,52.20
2019-05-14T06:38:49.916Z,69.15
2019-05-14T06:41:19.543Z,49.67
2019-05-14T06:43:49.086Z,42.55
2019-05-14T06:46:19.264Z,33.83
2019-05-14T06:48:49.124Z,32.50
2019-05-14T06:51:20.005Z,33.90
2019-05-14T06:53:50.207Z,41.70
2019-05-14T06:56:21.693Z,36.60
2019-05-14T06:58:51.168Z,39.45
2019-05-14T07:01:20.592Z,33.95
2019-05-14T07:03:49.982Z,35.73
2019-05-14T07:06:19.352Z,37.93
2019-05-14T07:08:52.436Z,36.90
2019-05-14T07:11:19.972Z,42.08
2019-05-14T07:13:49.527Z,38.53
2019-05-14T07:16:19.844Z,32.60
2019-05-14T07:18:53.715Z,38.80
2019-05-14T07:21:20.602Z,43.28
2019-05-14T07:23:49.960Z,36.20
2019-05-14T07:26:19.668Z,34.10
2019-05-14T07:28:49.244Z,37.65
2019-05-14T07:31:18.909Z,31.73
2019-05-14T07:33:49.290Z,35.65
2019-05-14T07:36:19.343Z,34.33
2019-05-14T07:38:49.325Z,32.25
2019-05-14T07:41:19.468Z,29.60
2019-05-14T07:43:49.101Z,28.20
2019-05-14T07:46:19.332Z,26.75
2019-05-14T07:49:03.947Z,26.73
2019-05-14T07:51:19.917Z,30.23
2019-05-14T07:53:49.340Z,31.97
2019-05-14T07:56:19.024Z,30.08
2019-05-14T07:58:49.230Z,26.95
2019-05-14T08:01:19.026Z,25.97
2019-05-14T08:03:49.029Z,30.37
2019-05-14T08:06:19.126Z,28.67
2019-05-14T08:08:49.457Z,32.05
2019-05-14T08:11:19.400Z,32.38
2019-05-14T08:13:49.482Z,34.35
2019-05-14T08:16:19.128Z,31.33
2019-05-14T08:18:48.990Z,35.92
2019-05-14T08:21:19.295Z,36.42
2019-05-14T08:23:49.162Z,42.48
2019-05-14T08:26:19.310Z,38.92
2019-05-14T08:28:49.155Z,39.53
2019-05-14T08:31:18.939Z,39.53
2019-05-14T08:33:49.126Z,33.80
2019-05-14T08:36:18.812Z,38.50
2019-05-14T08:38:50.057Z,38.88
2019-05-14T08:41:19.965Z,32.50
2019-05-14T08:43:49.704Z,33.50
2019-05-14T08:46:19.528Z,34.13
2019-05-14T08:48:49.830Z,30.48
2019-05-14T08:51:19.339Z,27.87
2019-05-14T08:53:50.351Z,31.17
2019-05-14T08:56:20.059Z,27.00
2019-05-14T08:58:49.723Z,21.25
2019-05-14T09:01:19.810Z,22.50
2019-05-14T09:03:49.716Z,19.65
2019-05-14T09:06:19.506Z,17.95
2019-05-14T09:08:49.763Z,17.23
2019-05-14T09:11:24.446Z,14.25
2019-05-14T09:13:50.463Z,15.50
2019-05-14T09:16:19.835Z,14.75
2019-05-14T09:18:49.453Z,13.95
2019-05-14T09:21:20.440Z,13.00
2019-05-14T09:23:50.075Z,16.05
2019-05-14T09:26:19.494Z,15.78
2019-05-14T09:28:48.914Z,16.10
2019-05-14T09:31:19.789Z,13.75
2019-05-14T09:33:49.760Z,15.58
2019-05-14T09:36:23.566Z,12.60
2019-05-14T09:38:50.421Z,14.45
2019-05-14T09:41:20.131Z,14.25
2019-05-14T09:43:49.517Z,13.13
2019-05-14T09:46:18.900Z,12.60
2019-05-14T09:48:48.828Z,13.45
2019-05-14T09:51:18.700Z,14.55
2019-05-14T09:53:49.038Z,14.23
2019-05-14T09:56:19.308Z,13.38
2019-05-14T09:58:49.557Z,13.80
2019-05-14T10:01:19.682Z,12.98
2019-05-14T10:03:49.868Z,15.32
2019-05-14T10:06:20.778Z,13.53
2019-05-14T10:08:50.632Z,13.00
2019-05-14T10:11:19.963Z,13.78
2019-05-14T10:13:49.497Z,14.58
2019-05-14T10:16:19.220Z,15.28
2019-05-14T10:18:52.396Z,15.32
2019-05-14T10:21:20.084Z,17.00
2019-05-14T10:23:49.574Z,16.73
2019-05-14T10:26:19.240Z,17.67
2019-05-14T10:28:48.807Z,16.35
2019-05-14T10:31:18.679Z,16.60
2019-05-14T10:33:48.634Z,15.95
2019-05-14T10:36:19.087Z,15.50
2019-05-14T10:38:49.041Z,16.27
2019-05-14T10:41:18.698Z,14.85
2019-05-14T10:43:49.750Z,14.53
2019-05-14T10:46:19.559Z,16.45
2019-05-14T10:48:49.037Z,16.35
2019-05-14T10:51:18.440Z,16.32
2019-05-14T10:53:48.876Z,15.63
2019-05-14T10:56:21.646Z,15.75
2019-05-14T10:58:51.114Z,16.48
2019-05-14T11:01:22.655Z,17.92
2019-05-14T11:03:51.718Z,19.23
2019-05-14T11:06:21.139Z,17.92
2019-05-14T11:08:50.518Z,18.85
2019-05-14T11:11:19.998Z,19.60
2019-05-14T11:13:49.332Z,20.82
2019-05-14T11:16:19.210Z,19.40
2019-05-14T11:18:49.704Z,19.25
2019-05-14T11:21:25.966Z,18.20
2019-05-14T11:23:50.634Z,19.07
2019-05-14T11:26:20.132Z,22.80
2019-05-14T11:28:49.603Z,23.75
2019-05-14T11:31:19.475Z,26.02
2019-05-14T11:33:49.804Z,25.48
2019-05-14T11:36:19.577Z,25.20
2019-05-14T11:38:50.792Z,28.17
2019-05-14T11:41:20.550Z,25.12
2019-05-14T11:43:50.005Z,24.70
2019-05-14T11:46:29.734Z,24.82
2019-05-14T11:48:50.615Z,23.85
2019-05-14T11:51:45.806Z,24.47
2019-05-14T11:53:51.166Z,19.65
2019-05-14T11:56:20.689Z,19.45
2019-05-14T11:58:50.052Z,19.82
2019-05-14T12:01:19.446Z,22.50
2019-05-14T12:03:50.313Z,23.90
2019-05-14T12:06:20.057Z,22.27
2019-05-14T12:08:49.437Z,21.10
2019-05-14T12:11:19.601Z,19.65
2019-05-14T12:13:49.243Z,17.92
2019-05-14T12:16:18.632Z,18.50
2019-05-14T12:18:48.495Z,19.35
2019-05-14T12:21:17.942Z,21.15
2019-05-14T12:23:47.403Z,22.52
2019-05-14T12:26:19.071Z,23.57
2019-05-14T12:28:49.387Z,24.15
2019-05-14T12:31:19.035Z,21.77
2019-05-14T12:33:48.951Z,22.77
2019-05-14T12:36:19.264Z,23.55
2019-05-14T12:38:49.021Z,21.30
2019-05-14T12:41:19.349Z,21.20
2019-05-14T12:43:49.114Z,22.58
2019-05-14T12:46:20.147Z,23.92
2019-05-14T12:48:49.820Z,21.85
2019-05-14T12:51:19.239Z,21.05
2019-05-14T12:53:48.971Z,22.80
2019-05-14T12:56:19.025Z,21.87
2019-05-14T12:58:49.083Z,18.67
2019-05-14T13:01:19.997Z,20.85
2019-05-14T13:03:49.702Z,19.00
2019-05-14T13:06:19.361Z,20.20
2019-05-14T13:08:49.301Z,19.45
2019-05-14T13:11:18.949Z,20.88
2019-05-14T13:13:49.079Z,20.57
2019-05-14T13:16:19.540Z,18.90
2019-05-14T13:18:50.138Z,20.55
2019-05-14T13:21:19.948Z,20.45
2019-05-14T13:23:49.621Z,21.55
2019-05-14T13:26:19.256Z,20.77
2019-05-14T13:28:50.817Z,23.15
2019-05-14T13:31:22.861Z,23.20
2019-05-14T13:33:52.234Z,24.50
2019-05-14T13:36:21.605Z,26.17
2019-05-14T13:38:51.080Z,26.90
2019-05-14T13:41:20.519Z,25.45
2019-05-14T13:43:50.635Z,26.57
2019-05-14T13:46:20.156Z,27.98
2019-05-14T13:48:50.105Z,26.70
2019-05-14T13:51:19.807Z,27.20
2019-05-14T13:53:49.895Z,28.07
2019-05-14T13:56:19.469Z,26.23
2019-05-14T13:58:49.225Z,25.10
2019-05-14T14:01:19.412Z,26.52
2019-05-14T14:04:02.499Z,25.43
2019-05-14T14:06:20.965Z,26.33
2019-05-14T14:08:52.364Z,29.30
2019-05-14T14:11:21.736Z,28.15
2019-05-14T14:13:51.100Z,27.22
2019-05-14T14:16:20.532Z,27.48
2019-05-14T14:18:50.416Z,27.02
2019-05-14T14:21:20.125Z,27.77
2019-05-14T14:23:49.876Z,25.88
2019-05-14T14:26:19.542Z,28.05
2019-05-14T14:28:49.659Z,27.62
2019-05-14T14:31:19.227Z,26.65
2019-05-14T14:33:48.994Z,27.67
2019-05-14T14:36:19.968Z,27.27
2019-05-14T14:38:50.014Z,25.97
2019-05-14T14:41:19.757Z,26.37
2019-05-14T14:43:53.218Z,27.65
2019-05-14T14:46:20.595Z,26.45
2019-05-14T14:48:50.154Z,26.52
2019-05-14T14:51:19.684Z,27.40
2019-05-14T14:53:59.243Z,26.70
2019-05-14T14:56:20.174Z,28.52
2019-05-14T14:58:49.635Z,28.35
2019-05-14T15:01:19.881Z,27.35
2019-05-14T15:03:50.410Z,27.82
2019-05-14T15:06:20.464Z,25.60
2019-05-14T15:08:50.043Z,28.07
2019-05-14T15:11:19.458Z,29.45
2019-05-14T15:13:48.856Z,30.50
2019-05-14T15:16:19.946Z,29.63
2019-05-14T15:18:49.856Z,30.75
2019-05-14T15:21:19.633Z,29.65
2019-05-14T15:24:06.142Z,30.40
2019-05-14T15:26:20.121Z,31.23
2019-05-14T15:28:49.782Z,29.32
2019-05-14T15:31:19.398Z,30.30
2019-05-14T15:33:51.002Z,29.72
2019-05-14T15:36:19.947Z,29.92
2019-05-14T15:38:49.369Z,32.10
2019-05-14T15:41:20.121Z,31.45
2019-05-14T15:43:50.030Z,31.35
2019-05-14T15:46:19.380Z,31.70
2019-05-14T15:48:49.045Z,32.65
2019-05-14T15:51:19.488Z,33.35
2019-05-14T15:54:05.610Z,41.00
2019-05-14T15:56:20.677Z,35.75
2019-05-14T15:58:50.059Z,29.10
2019-05-14T16:01:19.615Z,28.07
2019-05-14T16:03:49.250Z,25.90
2019-05-14T16:06:19.332Z,25.52
2019-05-14T16:08:49.223Z,25.65
2019-05-14T16:11:18.919Z,27.35
2019-05-14T16:13:49.391Z,28.23
2019-05-14T16:16:19.590Z,30.23
2019-05-14T16:18:49.279Z,28.47
2019-05-14T16:21:18.646Z,27.85
2019-05-14T16:23:48.047Z,25.90
2019-05-14T16:26:18.710Z,27.42
2019-05-14T16:28:48.425Z,25.55
2019-05-14T16:31:18.530Z,26.05
2019-05-14T16:33:49.256Z,28.32
2019-05-14T16:36:19.228Z,29.20
2019-05-14T16:38:48.597Z,27.52
2019-05-14T16:41:18.583Z,27.65
2019-05-14T16:43:49.460Z,28.60
2019-05-14T16:46:19.168Z,30.75
2019-05-14T16:48:49.018Z,31.48
2019-05-14T16:51:19.377Z,30.92
2019-05-14T16:53:49.154Z,32.03
2019-05-14T16:56:19.233Z,30.95
2019-05-14T16:58:48.859Z,30.35
2019-05-14T17:01:19.253Z,27.87
2019-05-14T17:03:49.578Z,31.35
2019-05-14T17:06:19.325Z,33.83
2019-05-14T17:08:49.155Z,30.65
2019-05-14T17:11:18.712Z,30.15
2019-05-14T17:13:48.915Z,28.52
2019-05-14T17:16:19.562Z,28.23
2019-05-14T17:18:49.406Z,28.73
2019-05-14T17:21:18.874Z,30.25
2019-05-14T17:23:49.057Z,26.93
2019-05-14T17:26:18.970Z,27.77
2019-05-14T17:28:49.006Z,28.20
2019-05-14T17:31:19.236Z,27.67
2019-05-14T17:33:49.356Z,25.32
2019-05-14T17:36:19.150Z,27.25
2019-05-14T17:38:49.210Z,26.95
2019-05-14T17:41:19.615Z,30.05
2019-05-14T17:43:49.622Z,28.40
2019-05-14T17:46:20.723Z,27.98
2019-05-14T17:48:50.350Z,31.62
2019-05-14T17:51:19.863Z,29.32
2019-05-14T17:53:49.240Z,26.20
2019-05-14T17:56:19.221Z,25.65
2019-05-14T17:58:49.853Z,25.95
2019-05-14T18:01:19.322Z,24.18
2019-05-14T18:03:49.322Z,25.23
2019-05-14T18:06:19.119Z,25.92
2019-05-14T18:08:48.615Z,25.92
2019-05-14T18:11:19.186Z,28.50
2019-05-14T18:13:48.920Z,27.05
2019-05-14T18:16:19.142Z,27.42
2019-05-14T18:18:49.369Z,25.85
2019-05-14T18:21:19.264Z,27.05
2019-05-14T18:23:49.311Z,27.52
2019-05-14T18:26:19.079Z,28.50
2019-05-14T18:28:48.626Z,28.87
2019-05-14T18:31:20.227Z,31.15
2019-05-14T18:33:49.550Z,29.92
2019-05-14T18:36:19.271Z,26.70
2019-05-14T18:38:49.528Z,28.17
2019-05-14T18:41:19.217Z,27.62
2019-05-14T18:43:48.908Z,27.02
2019-05-14T18:46:19.245Z,26.35
2019-05-14T18:48:49.045Z,28.05
2019-05-14T18:51:19.692Z,27.00
2019-05-14T18:53:49.515Z,27.37
2019-05-14T18:56:24.305Z,27.95
2019-05-14T18:58:51.707Z,27.05
2019-05-14T19:01:21.169Z,30.20
2019-05-14T19:03:50.642Z,28.02
2019-05-14T19:06:20.112Z,28.27
2019-05-14T19:08:49.543Z,27.93
2019-05-14T19:11:19.873Z,26.77
2019-05-14T19:13:49.287Z,29.27
2019-05-14T19:16:18.732Z,31.23
2019-05-14T19:18:48.888Z,27.67
2019-05-14T19:21:18.438Z,30.75
2019-05-14T19:23:49.128Z,29.55
2019-05-14T19:26:33.099Z,29.45
2019-05-14T19:28:51.528Z,33.45
2019-05-14T19:31:21.035Z,27.37
2019-05-14T19:33:50.554Z,28.90
2019-05-14T19:36:19.948Z,27.37
2019-05-14T19:38:49.385Z,27.95
2019-05-14T19:41:22.565Z,28.02
2019-05-14T19:43:50.043Z,28.77
2019-05-14T19:46:19.473Z,30.45
2019-05-14T19:48:48.928Z,29.48
2019-05-14T19:51:18.885Z,34.20
2019-05-14T19:53:49.518Z,33.40
2019-05-14T19:56:19.470Z,29.77
2019-05-14T19:58:48.863Z,32.83
2019-05-14T20:01:19.368Z,31.48
2019-05-14T20:03:49.260Z,32.35
2019-05-14T20:06:18.889Z,35.15
2019-05-14T20:08:48.414Z,33.48
2019-05-14T20:11:19.252Z,36.93
2019-05-14T20:13:48.812Z,31.48
2019-05-14T20:16:18.563Z,33.55
2019-05-14T20:18:48.757Z,47.45
2019-05-14T20:21:18.420Z,32.10
2019-05-14T20:23:48.190Z,33.18
2019-05-14T20:26:17.722Z,36.80
2019-05-14T20:28:48.362Z,36.75
2019-05-14T20:31:18.198Z,35.63
2019-05-14T20:33:48.558Z,36.50
2019-05-14T20:36:18.821Z,34.80
2019-05-14T20:38:48.362Z,39.23
2019-05-14T20:41:18.113Z,39.03
2019-05-14T20:43:47.978Z,40.20
2019-05-14T20:46:18.526Z,37.00
2019-05-14T20:48:48.310Z,34.25
2019-05-14T20:51:18.524Z,36.53
2019-05-14T20:53:48.812Z,36.98
2019-05-14T20:56:18.951Z,41.88
2019-05-14T20:58:48.547Z,37.67
2019-05-14T21:01:18.536Z,38.75
2019-05-14T21:03:48.395Z,40.15
2019-05-14T21:06:18.835Z,42.70
2019-05-14T21:08:49.034Z,43.90
2019-05-14T21:11:19.052Z,41.35
2019-05-14T21:13:50.288Z,43.45
2019-05-14T21:16:19.808Z,43.50
2019-05-14T21:18:49.164Z,38.65
2019-05-14T21:21:18.741Z,40.85
2019-05-14T21:23:49.055Z,43.78
2019-05-14T21:26:19.369Z,41.37
2019-05-14T21:28:49.069Z,40.30
2019-05-14T21:31:18.499Z,41.42
2019-05-14T21:33:48.930Z,43.65
2019-05-14T21:36:19.275Z,45.67
2019-05-14T21:38:49.303Z,42.73
2019-05-14T21:41:20.528Z,42.08
2019-05-14T21:43:49.710Z,43.75
2019-05-14T21:46:19.537Z,41.05
2019-05-14T21:48:48.946Z,44.13
2019-05-14T21:51:18.297Z,45.25
2019-05-14T21:53:48.253Z,44.10
2019-05-14T21:56:21.517Z,41.02
2019-05-14T21:58:48.983Z,40.20
2019-05-14T22:01:18.949Z,43.42
2019-05-14T22:03:48.671Z,47.93
2019-05-14T22:06:18.391Z,43.02
2019-05-14T22:08:48.787Z,40.65
2019-05-14T22:11:18.961Z,48.45
2019-05-14T22:13:49.605Z,46.18
2019-05-14T22:16:19.177Z,42.55
2019-05-14T22:18:48.617Z,41.90
2019-05-14T22:21:18.488Z,48.48
2019-05-14T22:23:48.320Z,46.18
2019-05-14T22:26:18.604Z,49.63
2019-05-14T22:28:48.236Z,45.28
2019-05-14T22:31:19.266Z,48.65
2019-05-14T22:33:48.823Z,45.12
2019-05-14T22:36:21.457Z,48.48
2019-05-14T22:38:49.314Z,47.73
2019-05-14T22:41:18.690Z,46.98
2019-05-14T22:43:48.764Z,43.90
2019-05-14T22:46:19.231Z,48.02
2019-05-14T22:48:51.491Z,49.40
2019-05-14T22:51:19.772Z,50.03
2019-05-14T22:53:49.542Z,52.45
2019-05-14T22:56:19.050Z,51.40
2019-05-14T22:58:48.969Z,52.90
2019-05-14T23:01:18.689Z,52.20
2019-05-14T23:03:49.048Z,49.25
2019-05-14T23:06:19.050Z,52.20
2019-05-14T23:08:48.919Z,55.00
2019-05-14T23:11:19.770Z,50.48
2019-05-14T23:13:49.592Z,48.17
2019-05-14T23:16:31.015Z,53.38
2019-05-14T23:18:50.192Z,49.00
2019-05-14T23:21:19.577Z,49.48
2019-05-14T23:23:48.951Z,49.30
2019-05-14T23:26:19.206Z,48.52
2019-05-14T23:28:49.255Z,45.52
2019-05-14T23:31:18.853Z,47.15
2019-05-14T23:33:49.006Z,42.33
2019-05-14T23:36:18.578Z,43.90
2019-05-14T23:38:49.229Z,47.80
2019-05-14T23:41:19.425Z,46.90
2019-05-14T23:43:48.817Z,42.40
2019-05-14T23:46:18.390Z,45.28
2019-05-14T23:48:48.494Z,44.08
2019-05-14T23:51:18.298Z,44.88
2019-05-14T23:53:48.393Z,47.95
2019-05-14T23:56:19.289Z,48.10
2019-05-14T23:58:57.776Z,43.68
